Latest Weather Observations for Banana Bank

IDQ60801

Issued at 3:02 pm EST Thursday 28 May 2020 (issued every 10 minutes, with the page automatically refreshed every 10 minutes)

About weather observations | Map of weather stations | Latest weather observations for QLD | Other Formats
Station Details ID: 040925 Name: BANANA BANK NORTH BEACON Lat: -27.53 Lon: 153.33 Height: 7.0 m
Data from the previous 72 hours. | See also: Recent months at Banana Bank
Date/Time
EST
Temp
°C
App
Temp
°C
Dew
Point
°C
Rel
Hum
%
Delta-T
°C
Wind Press
QNH
hPa
Press
MSL
hPa
Rain since
9am
mm
Dir  Spd
km/h
Gust
km/h
Spd
kts
Gust
kts
28/03:00pm - - - - - ENE 7 9 4 5 - - -
28/02:30pm - - - - - NNE 4 4 2 2 - - -
28/02:00pm - - - - - NE 6 6 3 3 - - -
28/01:30pm - - - - - NNE 2 4 1 2 - - -
28/01:00pm - - - - - N 4 6 2 3 - - -
28/12:30pm - - - - - NNE 4 4 2 2 - - -
28/12:00pm - - - - - NE 4 6 2 3 - - -
28/11:30am - - - - - E 4 6 2 3 - - -
28/11:00am - - - - - SSE 2 4 1 2 - - -
28/10:30am - - - - - CALM 0 0 0 0 - - -
28/10:00am - - - - - CALM 0 0 0 0 - - -
28/09:30am - - - - - CALM 0 0 0 0 - - -
28/09:00am - - - - - CALM 0 0 0 0 - - -
28/08:30am - - - - - CALM 0 0 0 0 - - -
28/08:00am - - - - - CALM 0 6 0 3 - - -
28/07:30am - - - - - CALM 0 0 0 0 - - -
28/07:00am - - - - - SSW 7 9 4 5 - - -
28/06:30am - - - - - SSE 2 6 1 3 - - -
28/06:00am - - - - - S 6 7 3 4 - - -
28/05:30am - - - - - SSE 4 4 2 2 - - -
28/05:00am - - - - - S 4 6 2 3 - - -
28/04:30am - - - - - SW 6 6 3 3 - - -
28/04:00am - - - - - SW 7 9 4 5 - - -
28/03:30am - - - - - WSW 2 6 1 3 - - -
28/03:00am - - - - - W 2 4 1 2 - - -
28/02:30am - - - - - W 4 4 2 2 - - -
28/02:00am - - - - - CALM 0 0 0 0 - - -
28/01:30am - - - - - CALM 0 2 0 1 - - -
28/01:00am - - - - - SSE 7 7 4 4 - - -
28/12:30am - - - - - SSE 4 7 2 4 - - -
28/12:00am - - - - - NW 7 9 4 5 - - -
 
Date/Time
EST
Temp
°C
App
Temp
°C
Dew
Point
°C
Rel
Hum
%
Delta-T
°C
Wind Press
QNH
hPa
Press
MSL
hPa
Rain since
9am
mm
Dir  Spd
km/h
Gust
km/h
Spd
kts
Gust
kts
27/11:30pm - - - - - WNW 6 6 3 3 - - -
27/11:00pm - - - - - WNW 4 6 2 3 - - -
27/10:30pm - - - - - SW 2 4 1 2 - - -
27/10:00pm - - - - - SSW 4 4 2 2 - - -
27/09:30pm - - - - - S 2 4 1 2 - - -
27/09:00pm - - - - - S 6 7 3 4 - - -
27/08:30pm - - - - - SSW 2 6 1 3 - - -
27/08:00pm - - - - - CALM 0 2 0 1 - - -
27/07:30pm - - - - - SE 4 6 2 3 - - -
27/07:00pm - - - - - SE 4 6 2 3 - - -
27/06:30pm - - - - - SE 11 13 6 7 - - -
27/06:00pm - - - - - E 7 13 4 7 - - -
27/05:30pm - - - - - NNE 7 9 4 5 - - -
27/05:00pm - - - - - N 11 13 6 7 - - -
27/04:30pm - - - - - N 9 11 5 6 - - -
27/04:00pm - - - - - NNE 11 11 6 6 - - -
27/03:30pm - - - - - NNE 9 9 5 5 - - -
27/03:00pm - - - - - NNE 7 9 4 5 - - -
27/02:30pm - - - - - N 11 13 6 7 - - -
27/02:00pm - - - - - NE 6 7 3 4 - - -
27/01:30pm - - - - - NE 6 6 3 3 - - -
27/01:00pm - - - - - NE 4 6 2 3 - - -
27/12:30pm - - - - - N 4 4 2 2 - - -
27/12:00pm - - - - - CALM 0 0 0 0 - - -
27/11:30am - - - - - CALM 0 2 0 1 - - -
27/11:00am - - - - - ENE 6 6 3 3 - - -
27/10:30am - - - - - ENE 7 9 4 5 - - -
27/10:00am - - - - - SSE 6 7 3 4 - - -
27/09:30am - - - - - SSW 7 9 4 5 - - -
27/09:00am - - - - - SSW 7 7 4 4 - - -
27/08:30am - - - - - CALM 0 0 0 0 - - -
27/08:00am - - - - - CALM 0 4 0 2 - - -
27/07:30am - - - - - SSW 4 6 2 3 - - -
27/07:00am - - - - - SW 9 13 5 7 - - -
27/06:30am - - - - - WSW 6 9 3 5 - - -
27/06:00am - - - - - S 2 6 1 3 - - -
27/05:30am - - - - - SE 4 6 2 3 - - -
27/05:00am - - - - - SSW 4 6 2 3 - - -
27/04:30am - - - - - SW 7 11 4 6 - - -
27/04:00am - - - - - SSW 6 6 3 3 - - -
27/03:30am - - - - - S 4 6 2 3 - - -
27/03:00am - - - - - SSW 7 9 4 5 - - -
27/02:30am - - - - - WSW 9 13 5 7 - - -
27/02:00am - - - - - W 7 13 4 7 - - -
27/01:30am - - - - - SW 4 6 2 3 - - -
27/01:00am - - - - - SSW 9 13 5 7 - - -
27/12:30am - - - - - WSW 4 6 2 3 - - -
27/12:00am - - - - - WSW 4 7 2 4 - - -
 
Date/Time
EST
Temp
°C
App
Temp
°C
Dew
Point
°C
Rel
Hum
%
Delta-T
°C
Wind Press
QNH
hPa
Press
MSL
hPa
Rain since
9am
mm
Dir  Spd
km/h
Gust
km/h
Spd
kts
Gust
kts
26/11:30pm - - - - - W 7 11 4 6 - - -
26/11:00pm - - - - - W 7 9 4 5 - - -
26/10:30pm - - - - - NW 11 13 6 7 - - -
26/10:00pm - - - - - NW 13 17 7 9 - - -
26/09:30pm - - - - - NW 15 17 8 9 - - -
26/09:00pm - - - - - NW 13 15 7 8 - - -
26/08:30pm - - - - - NW 19 22 10 12 - - -
26/08:00pm - - - - - NNW 13 15 7 8 - - -
26/07:30pm - - - - - NNW 15 15 8 8 - - -
26/07:00pm - - - - - NNW 13 13 7 7 - - -
26/06:30pm - - - - - NNW 13 15 7 8 - - -
26/06:00pm - - - - - NNW 13 13 7 7 - - -
26/05:30pm - - - - - N 9 11 5 6 - - -
26/05:00pm - - - - - N 9 11 5 6 - - -
26/04:30pm - - - - - N 9 13 5 7 - - -
26/04:00pm - - - - - N 11 13 6 7 - - -
26/03:30pm - - - - - N 13 17 7 9 - - -
26/03:00pm - - - - - N 15 17 8 9 - - -
26/02:30pm - - - - - N 15 17 8 9 - - -
26/02:00pm - - - - - N 13 15 7 8 - - -
26/01:30pm - - - - - N 7 9 4 5 - - -
26/01:00pm - - - - - NE 9 9 5 5 - - -
26/12:30pm - - - - - ENE 9 11 5 6 - - -
26/12:00pm - - - - - NNE 6 7 3 4 - - -
26/11:30am - - - - - N 4 6 2 3 - - -
26/11:00am - - - - - N 6 6 3 3 - - -
26/10:30am - - - - - NE 2 4 1 2 - - -
26/10:00am - - - - - CALM 0 0 0 0 - - -
26/09:30am - - - - - CALM 0 0 0 0 - - -
26/09:00am - - - - - SW 4 6 2 3 - - -
26/08:30am - - - - - W 6 9 3 5 - - -
26/08:00am - - - - - WSW 4 6 2 3 - - -
26/07:30am - - - - - WSW 7 11 4 6 - - -
26/07:00am - - - - - WSW 7 15 4 8 - - -
26/06:30am - - - - - SW 15 19 8 10 - - -
26/06:00am - - - - - W 20 26 11 14 - - -
26/05:30am - - - - - W 20 24 11 13 - - -
26/05:00am - - - - - W 19 22 10 12 - - -
26/04:30am - - - - - W 13 17 7 9 - - -
26/04:00am - - - - - WNW 13 17 7 9 - - -
26/03:30am - - - - - W 15 19 8 10 - - -
26/03:00am - - - - - WNW 17 20 9 11 - - -
26/02:30am - - - - - WNW 13 17 7 9 - - -
26/02:00am - - - - - WNW 11 13 6 7 - - -
26/01:30am - - - - - WNW 13 17 7 9 - - -
26/01:00am - - - - - WNW 13 15 7 8 - - -
26/12:30am - - - - - WNW 13 15 7 8 - - -
26/12:00am - - - - - NW 11 13 6 7 - - -
 
Date/Time
EST
Temp
°C
App
Temp
°C
Dew
Point
°C
Rel
Hum
%
Delta-T
°C
Wind Press
QNH
hPa
Press
MSL
hPa
Rain since
9am
mm
Dir  Spd
km/h
Gust
km/h
Spd
kts
Gust
kts
25/11:30pm - - - - - NW 13 15 7 8 - - -
25/11:00pm - - - - - NW 13 17 7 9 - - -
25/10:30pm - - - - - WNW 13 17 7 9 - - -
25/10:00pm - - - - - NW 19 24 10 13 - - -
25/09:30pm - - - - - NW 20 24 11 13 - - -
25/09:00pm - - - - - NW 15 17 8 9 - - -
25/08:30pm - - - - - NW 15 17 8 9 - - -
25/08:00pm - - - - - WNW 13 17 7 9 - - -
25/07:30pm - - - - - N 9 13 5 7 - - -
25/07:00pm - - - - - N 7 9 4 5 - - -
25/06:30pm - - - - - NNE 7 9 4 5 - - -
25/06:00pm - - - - - NNE 7 9 4 5 - - -
25/05:30pm - - - - - NE 6 7 3 4 - - -
25/05:00pm - - - - - NNE 7 9 4 5 - - -
25/04:30pm - - - - - NNE 9 11 5 6 - - -
25/04:00pm - - - - - N 9 11 5 6 - - -
25/03:30pm - - - - - NNE 4 9 2 5 - - -

Other formats

Comma delimited format used in spreadsheet applications
http://www.bom.gov.au/fwo/IDQ60801/IDQ60801.94591.axf

JavaScript Object Notation format (JSON) in row-major order
http://www.bom.gov.au/fwo/IDQ60801/IDQ60801.94591.json

Data quality

Most of these data are generated automatically and are frequently updated. Quality checks on data are not normally performed. It is possible for incorrect values to appear. Refer to information at About Latest Weather Observations and please check the disclaimer before using these data.